sensor_id;sensor_type;location;lat;lon;timestamp;temperature;humidity
66596;SHT31;59017;49.252;18.838;2022-12-18T00:00:56;19.50;39.71
66596;SHT31;59017;49.252;18.838;2022-12-18T00:03:21;19.43;39.32
66596;SHT31;59017;49.252;18.838;2022-12-18T00:05:47;19.45;39.46
66596;SHT31;59017;49.252;18.838;2022-12-18T00:08:12;19.46;40.46
66596;SHT31;59017;49.252;18.838;2022-12-18T00:10:38;19.47;41.39
66596;SHT31;59017;49.252;18.838;2022-12-18T00:13:03;19.43;40.67
66596;SHT31;59017;49.252;18.838;2022-12-18T00:15:28;19.45;40.15
66596;SHT31;59017;49.252;18.838;2022-12-18T00:17:54;19.45;40.22
66596;SHT31;59017;49.252;18.838;2022-12-18T00:20:19;19.50;40.35
66596;SHT31;59017;49.252;18.838;2022-12-18T00:22:50;19.49;40.78
66596;SHT31;59017;49.252;18.838;2022-12-18T00:25:16;19.46;39.99
66596;SHT31;59017;49.252;18.838;2022-12-18T00:27:41;19.50;42.23
66596;SHT31;59017;49.252;18.838;2022-12-18T00:30:07;19.50;41.29
66596;SHT31;59017;49.252;18.838;2022-12-18T00:32:32;19.55;42.53
66596;SHT31;59017;49.252;18.838;2022-12-18T00:34:58;19.50;41.40
66596;SHT31;59017;49.252;18.838;2022-12-18T00:37:23;19.49;41.13
66596;SHT31;59017;49.252;18.838;2022-12-18T00:39:48;19.53;41.62
66596;SHT31;59017;49.252;18.838;2022-12-18T00:42:14;19.49;41.09
66596;SHT31;59017;49.252;18.838;2022-12-18T00:44:58;19.53;42.17
66596;SHT31;59017;49.252;18.838;2022-12-18T00:47:24;19.52;41.08
66596;SHT31;59017;49.252;18.838;2022-12-18T00:49:49;19.53;42.34
66596;SHT31;59017;49.252;18.838;2022-12-18T00:52:14;19.50;41.56
66596;SHT31;59017;49.252;18.838;2022-12-18T00:54:39;19.46;40.96
66596;SHT31;59017;49.252;18.838;2022-12-18T00:57:05;19.50;41.76
66596;SHT31;59017;49.252;18.838;2022-12-18T00:59:30;19.47;42.05
66596;SHT31;59017;49.252;18.838;2022-12-18T01:01:55;19.47;43.00
66596;SHT31;59017;49.252;18.838;2022-12-18T01:04:21;19.49;42.52
66596;SHT31;59017;49.252;18.838;2022-12-18T01:06:46;19.49;42.51
66596;SHT31;59017;49.252;18.838;2022-12-18T01:09:11;19.49;42.58
66596;SHT31;59017;49.252;18.838;2022-12-18T01:11:37;19.46;42.18
66596;SHT31;59017;49.252;18.838;2022-12-18T01:14:02;19.46;42.32
66596;SHT31;59017;49.252;18.838;2022-12-18T01:16:27;19.46;43.04
66596;SHT31;59017;49.252;18.838;2022-12-18T01:18:53;19.46;43.82
66596;SHT31;59017;49.252;18.838;2022-12-18T01:21:19;19.47;43.09
66596;SHT31;59017;49.252;18.838;2022-12-18T01:23:45;19.43;44.23
66596;SHT31;59017;49.252;18.838;2022-12-18T01:26:12;19.49;43.64
66596;SHT31;59017;49.252;18.838;2022-12-18T01:28:38;19.47;43.37
66596;SHT31;59017;49.252;18.838;2022-12-18T01:31:20;19.49;43.41
66596;SHT31;59017;49.252;18.838;2022-12-18T01:33:45;19.55;44.01
66596;SHT31;59017;49.252;18.838;2022-12-18T01:36:14;19.55;43.90
66596;SHT31;59017;49.252;18.838;2022-12-18T01:38:40;19.56;43.65
66596;SHT31;59017;49.252;18.838;2022-12-18T01:41:06;19.56;43.15
66596;SHT31;59017;49.252;18.838;2022-12-18T01:46:12;19.53;43.66
66596;SHT31;59017;49.252;18.838;2022-12-18T01:48:38;19.47;43.42
66596;SHT31;59017;49.252;18.838;2022-12-18T01:51:04;19.42;43.10
66596;SHT31;59017;49.252;18.838;2022-12-18T01:53:29;19.40;44.68
66596;SHT31;59017;49.252;18.838;2022-12-18T01:55:56;19.45;44.69
66596;SHT31;59017;49.252;18.838;2022-12-18T01:58:41;19.42;43.49
66596;SHT31;59017;49.252;18.838;2022-12-18T02:01:08;19.39;44.95
66596;SHT31;59017;49.252;18.838;2022-12-18T02:03:34;19.36;45.58
66596;SHT31;59017;49.252;18.838;2022-12-18T02:06:01;19.36;43.77
66596;SHT31;59017;49.252;18.838;2022-12-18T02:08:33;19.35;44.31
66596;SHT31;59017;49.252;18.838;2022-12-18T02:11:05;19.36;43.59
66596;SHT31;59017;49.252;18.838;2022-12-18T02:16:08;19.30;43.68
66596;SHT31;59017;49.252;18.838;2022-12-18T02:18:38;19.33;43.89
66596;SHT31;59017;49.252;18.838;2022-12-18T02:21:08;19.37;44.64
66596;SHT31;59017;49.252;18.838;2022-12-18T02:28:42;19.46;44.63
66596;SHT31;59017;49.252;18.838;2022-12-18T02:31:10;19.39;45.83
66596;SHT31;59017;49.252;18.838;2022-12-18T02:33:36;19.33;44.16
66596;SHT31;59017;49.252;18.838;2022-12-18T02:36:02;19.40;45.01
66596;SHT31;59017;49.252;18.838;2022-12-18T02:38:28;19.42;44.14
66596;SHT31;59017;49.252;18.838;2022-12-18T02:40:53;19.36;43.35
66596;SHT31;59017;49.252;18.838;2022-12-18T02:43:19;19.35;43.35
66596;SHT31;59017;49.252;18.838;2022-12-18T02:45:49;19.32;44.83
66596;SHT31;59017;49.252;18.838;2022-12-18T02:48:22;19.30;45.94
66596;SHT31;59017;49.252;18.838;2022-12-18T02:50:51;19.30;44.46
66596;SHT31;59017;49.252;18.838;2022-12-18T02:53:27;19.28;44.83
66596;SHT31;59017;49.252;18.838;2022-12-18T02:56:02;19.25;44.69
66596;SHT31;59017;49.252;18.838;2022-12-18T03:01:20;19.25;45.00
66596;SHT31;59017;49.252;18.838;2022-12-18T03:03:57;19.25;45.21
66596;SHT31;59017;49.252;18.838;2022-12-18T03:06:28;19.23;44.23
66596;SHT31;59017;49.252;18.838;2022-12-18T03:08:59;19.25;44.87
66596;SHT31;59017;49.252;18.838;2022-12-18T03:11:27;19.22;44.70
66596;SHT31;59017;49.252;18.838;2022-12-18T03:14:11;19.20;44.58
66596;SHT31;59017;49.252;18.838;2022-12-18T03:16:37;19.18;43.46
66596;SHT31;59017;49.252;18.838;2022-12-18T03:19:06;19.25;45.64
66596;SHT31;59017;49.252;18.838;2022-12-18T03:21:43;19.23;44.68
66596;SHT31;59017;49.252;18.838;2022-12-18T03:24:10;19.25;44.60
66596;SHT31;59017;49.252;18.838;2022-12-18T03:26:36;19.26;45.13
66596;SHT31;59017;49.252;18.838;2022-12-18T03:29:05;19.20;44.75
66596;SHT31;59017;49.252;18.838;2022-12-18T03:31:31;19.15;45.48
66596;SHT31;59017;49.252;18.838;2022-12-18T03:34:12;19.15;44.27
66596;SHT31;59017;49.252;18.838;2022-12-18T03:36:38;19.11;45.01
66596;SHT31;59017;49.252;18.838;2022-12-18T03:39:03;19.12;44.89
66596;SHT31;59017;49.252;18.838;2022-12-18T03:41:32;19.08;44.78
66596;SHT31;59017;49.252;18.838;2022-12-18T03:46:38;19.07;44.04
66596;SHT31;59017;49.252;18.838;2022-12-18T03:49:09;19.05;44.47
66596;SHT31;59017;49.252;18.838;2022-12-18T03:51:43;19.07;44.20
66596;SHT31;59017;49.252;18.838;2022-12-18T03:54:13;19.07;44.76
66596;SHT31;59017;49.252;18.838;2022-12-18T03:56:40;19.07;44.58
66596;SHT31;59017;49.252;18.838;2022-12-18T03:59:07;19.07;43.35
66596;SHT31;59017;49.252;18.838;2022-12-18T04:01:38;19.05;46.05
66596;SHT31;59017;49.252;18.838;2022-12-18T04:04:04;19.02;44.39
66596;SHT31;59017;49.252;18.838;2022-12-18T04:06:30;19.02;44.00
66596;SHT31;59017;49.252;18.838;2022-12-18T04:08:57;19.04;44.30
66596;SHT31;59017;49.252;18.838;2022-12-18T04:11:22;19.11;45.30
66596;SHT31;59017;49.252;18.838;2022-12-18T04:13:47;19.08;44.45
66596;SHT31;59017;49.252;18.838;2022-12-18T04:16:13;19.05;43.83
66596;SHT31;59017;49.252;18.838;2022-12-18T04:18:38;19.08;45.37
66596;SHT31;59017;49.252;18.838;2022-12-18T04:21:03;19.05;44.50
66596;SHT31;59017;49.252;18.838;2022-12-18T04:23:29;19.11;44.50
66596;SHT31;59017;49.252;18.838;2022-12-18T04:25:54;18.99;44.72
66596;SHT31;59017;49.252;18.838;2022-12-18T04:28:20;18.99;43.59
66596;SHT31;59017;49.252;18.838;2022-12-18T04:30:45;19.02;43.26
66596;SHT31;59017;49.252;18.838;2022-12-18T04:33:11;19.04;43.42
66596;SHT31;59017;49.252;18.838;2022-12-18T04:35:36;19.11;44.47
66596;SHT31;59017;49.252;18.838;2022-12-18T04:38:02;19.08;44.96
66596;SHT31;59017;49.252;18.838;2022-12-18T04:40:27;19.04;43.39
66596;SHT31;59017;49.252;18.838;2022-12-18T04:42:53;19.08;44.38
66596;SHT31;59017;49.252;18.838;2022-12-18T04:45:18;19.02;44.23
66596;SHT31;59017;49.252;18.838;2022-12-18T04:47:43;19.02;43.71
66596;SHT31;59017;49.252;18.838;2022-12-18T04:50:08;19.05;44.96
66596;SHT31;59017;49.252;18.838;2022-12-18T04:52:34;19.05;43.34
66596;SHT31;59017;49.252;18.838;2022-12-18T04:55:00;19.08;45.25
66596;SHT31;59017;49.252;18.838;2022-12-18T04:57:25;19.05;44.31
66596;SHT31;59017;49.252;18.838;2022-12-18T04:59:51;19.02;42.88
66596;SHT31;59017;49.252;18.838;2022-12-18T05:02:16;19.02;44.67
66596;SHT31;59017;49.252;18.838;2022-12-18T05:04:41;19.07;44.51
66596;SHT31;59017;49.252;18.838;2022-12-18T05:07:07;19.04;43.82
66596;SHT31;59017;49.252;18.838;2022-12-18T05:09:32;19.02;45.76
66596;SHT31;59017;49.252;18.838;2022-12-18T05:11:57;19.01;43.58
66596;SHT31;59017;49.252;18.838;2022-12-18T05:14:23;18.98;45.90
66596;SHT31;59017;49.252;18.838;2022-12-18T05:16:48;19.01;44.61
66596;SHT31;59017;49.252;18.838;2022-12-18T05:19:13;18.95;43.55
66596;SHT31;59017;49.252;18.838;2022-12-18T05:21:39;18.88;42.99
66596;SHT31;59017;49.252;18.838;2022-12-18T05:24:04;18.91;43.76
66596;SHT31;59017;49.252;18.838;2022-12-18T05:26:30;18.88;43.88
66596;SHT31;59017;49.252;18.838;2022-12-18T05:28:56;18.85;44.51
66596;SHT31;59017;49.252;18.838;2022-12-18T05:31:21;18.89;44.74
66596;SHT31;59017;49.252;18.838;2022-12-18T05:33:46;18.84;44.17
66596;SHT31;59017;49.252;18.838;2022-12-18T05:36:12;18.80;43.62
66596;SHT31;59017;49.252;18.838;2022-12-18T05:38:38;18.81;44.12
66596;SHT31;59017;49.252;18.838;2022-12-18T05:41:03;18.83;44.56
66596;SHT31;59017;49.252;18.838;2022-12-18T05:43:29;18.80;43.55
66596;SHT31;59017;49.252;18.838;2022-12-18T05:45:54;18.77;42.66
66596;SHT31;59017;49.252;18.838;2022-12-18T05:48:21;18.78;43.55
66596;SHT31;59017;49.252;18.838;2022-12-18T05:50:46;18.78;44.34
66596;SHT31;59017;49.252;18.838;2022-12-18T05:53:13;18.88;46.68
66596;SHT31;59017;49.252;18.838;2022-12-18T05:55:39;18.83;43.60
66596;SHT31;59017;49.252;18.838;2022-12-18T05:58:06;18.84;44.50
66596;SHT31;59017;49.252;18.838;2022-12-18T06:00:32;18.85;44.11
66596;SHT31;59017;49.252;18.838;2022-12-18T06:02:58;18.81;43.28
66596;SHT31;59017;49.252;18.838;2022-12-18T06:05:24;18.81;44.06
66596;SHT31;59017;49.252;18.838;2022-12-18T06:07:49;18.77;43.37
66596;SHT31;59017;49.252;18.838;2022-12-18T06:10:14;18.75;45.66
66596;SHT31;59017;49.252;18.838;2022-12-18T06:12:40;18.78;44.88
66596;SHT31;59017;49.252;18.838;2022-12-18T06:15:05;18.80;43.98
66596;SHT31;59017;49.252;18.838;2022-12-18T06:17:31;18.78;44.93
66596;SHT31;59017;49.252;18.838;2022-12-18T06:19:56;18.78;44.41
66596;SHT31;59017;49.252;18.838;2022-12-18T06:22:22;18.78;44.11
66596;SHT31;59017;49.252;18.838;2022-12-18T06:24:47;18.85;45.50
66596;SHT31;59017;49.252;18.838;2022-12-18T06:27:13;18.87;44.39
66596;SHT31;59017;49.252;18.838;2022-12-18T06:29:38;18.88;44.05
66596;SHT31;59017;49.252;18.838;2022-12-18T06:32:03;18.91;43.83
66596;SHT31;59017;49.252;18.838;2022-12-18T06:34:29;18.88;44.98
66596;SHT31;59017;49.252;18.838;2022-12-18T06:36:54;18.91;44.11
66596;SHT31;59017;49.252;18.838;2022-12-18T06:39:19;18.91;45.12
66596;SHT31;59017;49.252;18.838;2022-12-18T06:41:45;18.87;44.40
66596;SHT31;59017;49.252;18.838;2022-12-18T06:44:10;18.87;44.66
66596;SHT31;59017;49.252;18.838;2022-12-18T06:46:36;18.85;44.35
66596;SHT31;59017;49.252;18.838;2022-12-18T06:49:01;18.84;45.10
66596;SHT31;59017;49.252;18.838;2022-12-18T06:51:26;18.84;45.21
66596;SHT31;59017;49.252;18.838;2022-12-18T06:53:52;18.92;44.15
66596;SHT31;59017;49.252;18.838;2022-12-18T06:56:17;18.85;44.39
66596;SHT31;59017;49.252;18.838;2022-12-18T06:58:42;18.80;43.65
66596;SHT31;59017;49.252;18.838;2022-12-18T07:01:09;18.80;44.41
66596;SHT31;59017;49.252;18.838;2022-12-18T07:03:35;18.81;43.89
66596;SHT31;59017;49.252;18.838;2022-12-18T07:06:01;18.80;44.04
66596;SHT31;59017;49.252;18.838;2022-12-18T07:08:26;18.80;44.67
66596;SHT31;59017;49.252;18.838;2022-12-18T07:10:51;18.80;43.71
66596;SHT31;59017;49.252;18.838;2022-12-18T07:13:19;18.77;44.45
66596;SHT31;59017;49.252;18.838;2022-12-18T07:15:44;18.74;44.04
66596;SHT31;59017;49.252;18.838;2022-12-18T07:18:09;18.75;43.48
66596;SHT31;59017;49.252;18.838;2022-12-18T07:20:35;18.74;42.73
66596;SHT31;59017;49.252;18.838;2022-12-18T07:23:02;18.77;44.45
66596;SHT31;59017;49.252;18.838;2022-12-18T07:25:27;18.80;45.53
66596;SHT31;59017;49.252;18.838;2022-12-18T07:27:52;18.83;43.77
66596;SHT31;59017;49.252;18.838;2022-12-18T07:30:18;18.83;44.78
66596;SHT31;59017;49.252;18.838;2022-12-18T07:32:43;18.87;44.40
66596;SHT31;59017;49.252;18.838;2022-12-18T07:35:08;18.91;44.83
66596;SHT31;59017;49.252;18.838;2022-12-18T07:37:34;18.84;42.98
66596;SHT31;59017;49.252;18.838;2022-12-18T07:39:59;18.81;43.80
66596;SHT31;59017;49.252;18.838;2022-12-18T07:42:24;18.80;44.94
66596;SHT31;59017;49.252;18.838;2022-12-18T07:45:00;18.80;43.86
66596;SHT31;59017;49.252;18.838;2022-12-18T07:47:26;18.74;43.02
66596;SHT31;59017;49.252;18.838;2022-12-18T07:49:52;18.78;44.31
66596;SHT31;59017;49.252;18.838;2022-12-18T07:52:17;18.80;43.21
66596;SHT31;59017;49.252;18.838;2022-12-18T07:54:42;18.77;43.61
66596;SHT31;59017;49.252;18.838;2022-12-18T07:57:08;18.84;44.06
66596;SHT31;59017;49.252;18.838;2022-12-18T07:59:34;18.84;43.46
66596;SHT31;59017;49.252;18.838;2022-12-18T08:02:01;18.87;43.16
66596;SHT31;59017;49.252;18.838;2022-12-18T08:04:27;18.89;43.38
66596;SHT31;59017;49.252;18.838;2022-12-18T08:06:52;18.85;42.55
66596;SHT31;59017;49.252;18.838;2022-12-18T08:09:18;18.95;42.99
66596;SHT31;59017;49.252;18.838;2022-12-18T08:11:43;18.94;43.48
66596;SHT31;59017;49.252;18.838;2022-12-18T08:14:09;18.99;44.06
66596;SHT31;59017;49.252;18.838;2022-12-18T08:16:35;19.05;43.44
66596;SHT31;59017;49.252;18.838;2022-12-18T08:19:00;19.02;43.54
66596;SHT31;59017;49.252;18.838;2022-12-18T08:21:27;19.07;43.89
66596;SHT31;59017;49.252;18.838;2022-12-18T08:23:53;19.08;44.17
66596;SHT31;59017;49.252;18.838;2022-12-18T08:26:20;19.07;43.97
66596;SHT31;59017;49.252;18.838;2022-12-18T08:28:46;19.05;43.35
66596;SHT31;59017;49.252;18.838;2022-12-18T08:31:11;19.05;44.32
66596;SHT31;59017;49.252;18.838;2022-12-18T08:33:37;19.05;43.27
66596;SHT31;59017;49.252;18.838;2022-12-18T08:36:04;19.05;44.21
66596;SHT31;59017;49.252;18.838;2022-12-18T08:38:30;19.08;44.24
66596;SHT31;59017;49.252;18.838;2022-12-18T08:40:59;19.12;44.05
66596;SHT31;59017;49.252;18.838;2022-12-18T08:43:25;19.09;43.28
66596;SHT31;59017;49.252;18.838;2022-12-18T08:46:09;19.12;44.60
66596;SHT31;59017;49.252;18.838;2022-12-18T08:48:35;19.12;42.79
66596;SHT31;59017;49.252;18.838;2022-12-18T08:51:00;19.05;44.07
66596;SHT31;59017;49.252;18.838;2022-12-18T08:53:26;19.11;45.13
66596;SHT31;59017;49.252;18.838;2022-12-18T08:55:52;19.04;42.97
66596;SHT31;59017;49.252;18.838;2022-12-18T08:58:17;19.12;43.89
66596;SHT31;59017;49.252;18.838;2022-12-18T09:00:43;19.14;44.01
66596;SHT31;59017;49.252;18.838;2022-12-18T09:03:12;19.09;42.71
66596;SHT31;59017;49.252;18.838;2022-12-18T09:05:37;19.08;43.56
66596;SHT31;59017;49.252;18.838;2022-12-18T09:08:03;19.05;41.89
66596;SHT31;59017;49.252;18.838;2022-12-18T09:10:28;19.01;43.49
66596;SHT31;59017;49.252;18.838;2022-12-18T09:12:53;18.98;42.44
66596;SHT31;59017;49.252;18.838;2022-12-18T09:15:21;19.04;42.91
66596;SHT31;59017;49.252;18.838;2022-12-18T09:17:47;19.08;44.02
66596;SHT31;59017;49.252;18.838;2022-12-18T09:20:13;19.02;43.35
66596;SHT31;59017;49.252;18.838;2022-12-18T09:22:39;19.02;43.28
66596;SHT31;59017;49.252;18.838;2022-12-18T09:25:05;19.01;43.28
66596;SHT31;59017;49.252;18.838;2022-12-18T09:27:33;19.01;41.94
66596;SHT31;59017;49.252;18.838;2022-12-18T09:29:58;18.99;43.25
66596;SHT31;59017;49.252;18.838;2022-12-18T09:32:24;19.08;43.84
66596;SHT31;59017;49.252;18.838;2022-12-18T09:34:49;19.02;44.01
66596;SHT31;59017;49.252;18.838;2022-12-18T09:37:14;18.99;42.01
66596;SHT31;59017;49.252;18.838;2022-12-18T09:39:40;18.98;42.18
66596;SHT31;59017;49.252;18.838;2022-12-18T09:42:05;19.01;43.05
66596;SHT31;59017;49.252;18.838;2022-12-18T09:44:41;19.04;42.63
66596;SHT31;59017;49.252;18.838;2022-12-18T09:49:39;19.04;41.97
66596;SHT31;59017;49.252;18.838;2022-12-18T09:52:09;18.99;42.56
66596;SHT31;59017;49.252;18.838;2022-12-18T09:54:40;19.01;42.81
66596;SHT31;59017;49.252;18.838;2022-12-18T09:57:05;18.99;41.97
66596;SHT31;59017;49.252;18.838;2022-12-18T09:59:35;18.95;42.73
66596;SHT31;59017;49.252;18.838;2022-12-18T10:02:12;19.01;42.29
66596;SHT31;59017;49.252;18.838;2022-12-18T10:04:38;19.02;42.17
66596;SHT31;59017;49.252;18.838;2022-12-18T10:07:07;19.12;43.08
66596;SHT31;59017;49.252;18.838;2022-12-18T10:09:39;19.08;41.93
66596;SHT31;59017;49.252;18.838;2022-12-18T10:12:18;19.01;40.78
66596;SHT31;59017;49.252;18.838;2022-12-18T10:20:16;19.04;42.31
66596;SHT31;59017;49.252;18.838;2022-12-18T10:25:24;19.08;42.10
66596;SHT31;59017;49.252;18.838;2022-12-18T10:27:51;19.11;42.79
66596;SHT31;59017;49.252;18.838;2022-12-18T10:30:20;19.14;43.01
66596;SHT31;59017;49.252;18.838;2022-12-18T10:32:48;19.16;42.97
66596;SHT31;59017;49.252;18.838;2022-12-18T10:35:23;19.16;43.02
66596;SHT31;59017;49.252;18.838;2022-12-18T10:37:59;19.15;42.81
66596;SHT31;59017;49.252;18.838;2022-12-18T10:40:24;19.16;43.22
66596;SHT31;59017;49.252;18.838;2022-12-18T10:43:12;19.18;43.57
66596;SHT31;59017;49.252;18.838;2022-12-18T10:45:35;19.18;43.60
66596;SHT31;59017;49.252;18.838;2022-12-18T10:48:01;19.19;43.14
66596;SHT31;59017;49.252;18.838;2022-12-18T10:52:55;19.22;44.31
66596;SHT31;59017;49.252;18.838;2022-12-18T10:55:21;19.20;44.09
66596;SHT31;59017;49.252;18.838;2022-12-18T10:57:46;19.23;44.19
66596;SHT31;59017;49.252;18.838;2022-12-18T11:00:27;19.26;43.93
66596;SHT31;59017;49.252;18.838;2022-12-18T11:02:52;19.26;44.50
66596;SHT31;59017;49.252;18.838;2022-12-18T11:07:53;19.33;44.36
66596;SHT31;59017;49.252;18.838;2022-12-18T11:10:22;19.35;44.04
66596;SHT31;59017;49.252;18.838;2022-12-18T11:12:48;19.32;44.38
66596;SHT31;59017;49.252;18.838;2022-12-18T11:15:35;19.33;43.74
66596;SHT31;59017;49.252;18.838;2022-12-18T11:17:59;19.30;44.06
66596;SHT31;59017;49.252;18.838;2022-12-18T11:22:57;19.35;44.19
66596;SHT31;59017;49.252;18.838;2022-12-18T11:25:23;19.30;44.47
66596;SHT31;59017;49.252;18.838;2022-12-18T11:27:51;19.28;44.24
66596;SHT31;59017;49.252;18.838;2022-12-18T11:32:48;19.67;49.11
66596;SHT31;59017;49.252;18.838;2022-12-18T11:35:17;19.84;47.86
66596;SHT31;59017;49.252;18.838;2022-12-18T11:37:47;19.76;40.63
66596;SHT31;59017;49.252;18.838;2022-12-18T11:40:15;19.47;40.86
66596;SHT31;59017;49.252;18.838;2022-12-18T11:42:45;19.32;41.09
66596;SHT31;59017;49.252;18.838;2022-12-18T11:50:17;19.37;41.26
66596;SHT31;59017;49.252;18.838;2022-12-18T11:52:43;19.37;40.97
66596;SHT31;59017;49.252;18.838;2022-12-18T11:55:12;19.35;41.35
66596;SHT31;59017;49.252;18.838;2022-12-18T12:00:18;19.40;41.62
66596;SHT31;59017;49.252;18.838;2022-12-18T12:05:51;19.46;41.23
66596;SHT31;59017;49.252;18.838;2022-12-18T12:08:31;19.45;41.21
66596;SHT31;59017;49.252;18.838;2022-12-18T12:11:02;19.46;41.18
66596;SHT31;59017;49.252;18.838;2022-12-18T12:16:41;19.46;41.48
66596;SHT31;59017;49.252;18.838;2022-12-18T12:26:30;19.60;41.76
66596;SHT31;59017;49.252;18.838;2022-12-18T12:34:33;19.60;42.79
66596;SHT31;59017;49.252;18.838;2022-12-18T12:39:45;19.59;42.80
66596;SHT31;59017;49.252;18.838;2022-12-18T12:42:18;19.57;43.07
66596;SHT31;59017;49.252;18.838;2022-12-18T12:45:05;19.57;42.89
66596;SHT31;59017;49.252;18.838;2022-12-18T12:47:32;19.59;43.11
66596;SHT31;59017;49.252;18.838;2022-12-18T12:49:58;19.60;42.66
66596;SHT31;59017;49.252;18.838;2022-12-18T12:52:29;19.57;43.05
66596;SHT31;59017;49.252;18.838;2022-12-18T12:54:57;19.57;42.55
66596;SHT31;59017;49.252;18.838;2022-12-18T13:00:21;19.53;43.44
66596;SHT31;59017;49.252;18.838;2022-12-18T13:05:28;19.55;43.13
66596;SHT31;59017;49.252;18.838;2022-12-18T13:07:56;19.52;43.04
66596;SHT31;59017;49.252;18.838;2022-12-18T13:10:37;19.55;43.42
66596;SHT31;59017;49.252;18.838;2022-12-18T13:13:04;19.56;43.06
66596;SHT31;59017;49.252;18.838;2022-12-18T13:20:42;19.57;43.33
66596;SHT31;59017;49.252;18.838;2022-12-18T13:31:01;19.49;43.06
66596;SHT31;59017;49.252;18.838;2022-12-18T13:33:47;19.50;43.38
66596;SHT31;59017;49.252;18.838;2022-12-18T13:36:13;19.47;43.51
66596;SHT31;59017;49.252;18.838;2022-12-18T13:38:39;19.50;43.44
66596;SHT31;59017;49.252;18.838;2022-12-18T13:43:45;19.49;43.64
66596;SHT31;59017;49.252;18.838;2022-12-18T13:51:43;19.53;43.75
66596;SHT31;59017;49.252;18.838;2022-12-18T13:54:18;19.47;43.29
66596;SHT31;59017;49.252;18.838;2022-12-18T13:56:45;19.47;43.80
66596;SHT31;59017;49.252;18.838;2022-12-18T14:01:50;19.50;44.09
66596;SHT31;59017;49.252;18.838;2022-12-18T14:04:19;19.55;44.11
66596;SHT31;59017;49.252;18.838;2022-12-18T14:06:45;19.52;43.53
66596;SHT31;59017;49.252;18.838;2022-12-18T14:12:05;19.45;43.19
66596;SHT31;59017;49.252;18.838;2022-12-18T14:14:50;19.46;43.46
66596;SHT31;59017;49.252;18.838;2022-12-18T14:17:16;19.50;43.72
66596;SHT31;59017;49.252;18.838;2022-12-18T14:19:45;19.49;43.48
66596;SHT31;59017;49.252;18.838;2022-12-18T14:22:13;19.46;43.32
66596;SHT31;59017;49.252;18.838;2022-12-18T14:24:39;19.42;43.64
66596;SHT31;59017;49.252;18.838;2022-12-18T14:27:41;19.40;42.68
66596;SHT31;59017;49.252;18.838;2022-12-18T14:29:56;19.40;44.22
66596;SHT31;59017;49.252;18.838;2022-12-18T14:32:23;19.40;43.74
66596;SHT31;59017;49.252;18.838;2022-12-18T14:37:15;19.37;44.06
66596;SHT31;59017;49.252;18.838;2022-12-18T14:39:40;19.43;44.24
66596;SHT31;59017;49.252;18.838;2022-12-18T14:42:05;19.46;43.91
66596;SHT31;59017;49.252;18.838;2022-12-18T14:44:34;19.46;44.55
66596;SHT31;59017;49.252;18.838;2022-12-18T14:47:00;19.47;44.49
66596;SHT31;59017;49.252;18.838;2022-12-18T14:49:32;19.49;42.89
66596;SHT31;59017;49.252;18.838;2022-12-18T14:51:59;19.49;45.37
66596;SHT31;59017;49.252;18.838;2022-12-18T14:54:25;19.52;43.13
66596;SHT31;59017;49.252;18.838;2022-12-18T14:57:34;19.52;43.70
66596;SHT31;59017;49.252;18.838;2022-12-18T14:59:39;19.47;44.02
66596;SHT31;59017;49.252;18.838;2022-12-18T15:02:13;19.49;43.77
66596;SHT31;59017;49.252;18.838;2022-12-18T15:04:41;19.46;44.27
66596;SHT31;59017;49.252;18.838;2022-12-18T15:09:32;19.45;43.76
66596;SHT31;59017;49.252;18.838;2022-12-18T15:11:58;19.49;43.89
66596;SHT31;59017;49.252;18.838;2022-12-18T15:17:00;19.45;44.03
66596;SHT31;59017;49.252;18.838;2022-12-18T15:19:31;19.45;44.34
66596;SHT31;59017;49.252;18.838;2022-12-18T15:21:57;19.45;43.60
66596;SHT31;59017;49.252;18.838;2022-12-18T15:24:24;19.42;44.23
66596;SHT31;59017;49.252;18.838;2022-12-18T15:26:51;19.36;44.35
66596;SHT31;59017;49.252;18.838;2022-12-18T15:29:20;19.36;43.77
66596;SHT31;59017;49.252;18.838;2022-12-18T15:32:03;19.33;42.54
66596;SHT31;59017;49.252;18.838;2022-12-18T15:34:29;19.33;44.71
66596;SHT31;59017;49.252;18.838;2022-12-18T15:36:54;19.42;45.75
66596;SHT31;59017;49.252;18.838;2022-12-18T15:39:19;19.47;44.64
66596;SHT31;59017;49.252;18.838;2022-12-18T15:41:45;19.50;45.99
66596;SHT31;59017;49.252;18.838;2022-12-18T15:44:29;19.55;44.69
66596;SHT31;59017;49.252;18.838;2022-12-18T15:46:54;19.53;45.61
66596;SHT31;59017;49.252;18.838;2022-12-18T15:49:20;19.60;45.47
66596;SHT31;59017;49.252;18.838;2022-12-18T15:51:45;19.60;46.64
66596;SHT31;59017;49.252;18.838;2022-12-18T15:54:14;19.55;44.72
66596;SHT31;59017;49.252;18.838;2022-12-18T15:56:41;19.57;44.80
66596;SHT31;59017;49.252;18.838;2022-12-18T15:59:25;19.59;44.56
66596;SHT31;59017;49.252;18.838;2022-12-18T16:01:50;19.56;44.85
66596;SHT31;59017;49.252;18.838;2022-12-18T16:04:18;19.55;45.16
66596;SHT31;59017;49.252;18.838;2022-12-18T16:06:45;19.59;46.03
66596;SHT31;59017;49.252;18.838;2022-12-18T16:09:11;19.55;44.55
66596;SHT31;59017;49.252;18.838;2022-12-18T16:11:39;19.62;45.90
66596;SHT31;59017;49.252;18.838;2022-12-18T16:14:16;19.56;44.96
66596;SHT31;59017;49.252;18.838;2022-12-18T16:16:42;19.56;45.49
66596;SHT31;59017;49.252;18.838;2022-12-18T16:19:07;19.59;45.60
66596;SHT31;59017;49.252;18.838;2022-12-18T16:21:35;19.60;46.03
66596;SHT31;59017;49.252;18.838;2022-12-18T16:24:00;19.52;46.81
66596;SHT31;59017;49.252;18.838;2022-12-18T16:26:26;19.52;46.75
66596;SHT31;59017;49.252;18.838;2022-12-18T16:28:51;19.47;48.36
66596;SHT31;59017;49.252;18.838;2022-12-18T16:31:18;19.53;49.56
66596;SHT31;59017;49.252;18.838;2022-12-18T16:33:43;19.46;49.48
66596;SHT31;59017;49.252;18.838;2022-12-18T16:36:08;19.43;48.72
66596;SHT31;59017;49.252;18.838;2022-12-18T16:38:34;19.42;49.38
66596;SHT31;59017;49.252;18.838;2022-12-18T16:40:59;19.46;49.92
66596;SHT31;59017;49.252;18.838;2022-12-18T16:43:43;19.47;48.38
66596;SHT31;59017;49.252;18.838;2022-12-18T16:46:08;19.40;47.69
66596;SHT31;59017;49.252;18.838;2022-12-18T16:48:34;19.45;48.15
66596;SHT31;59017;49.252;18.838;2022-12-18T16:51:00;19.39;48.42
66596;SHT31;59017;49.252;18.838;2022-12-18T16:53:26;19.39;48.06
66596;SHT31;59017;49.252;18.838;2022-12-18T16:55:55;19.39;48.61
66596;SHT31;59017;49.252;18.838;2022-12-18T16:58:20;19.36;48.02
66596;SHT31;59017;49.252;18.838;2022-12-18T17:00:46;19.42;47.17
66596;SHT31;59017;49.252;18.838;2022-12-18T17:03:11;19.35;46.41